sensor_id;sensor_type;location;lat;lon;timestamp;pressure;altitude;pressure_sealevel;temperature;humidity
61506;BME280;47366;51.916;4.574;2023-06-14T00:00:10;101523.56;;;21.31;41.26
61506;BME280;47366;51.916;4.574;2023-06-14T00:02:38;101541.88;;;21.32;41.23
61506;BME280;47366;51.916;4.574;2023-06-14T00:05:05;101530.84;;;21.22;41.35
61506;BME280;47366;51.916;4.574;2023-06-14T00:07:38;101530.00;;;21.21;41.82
61506;BME280;47366;51.916;4.574;2023-06-14T00:10:08;101544.47;;;21.24;41.16
61506;BME280;47366;51.916;4.574;2023-06-14T00:12:34;101536.66;;;21.19;41.42
61506;BME280;47366;51.916;4.574;2023-06-14T00:14:59;101536.66;;;21.19;41.43
61506;BME280;47366;51.916;4.574;2023-06-14T00:17:27;101536.53;;;21.11;41.74
61506;BME280;47366;51.916;4.574;2023-06-14T00:19:56;101536.09;;;21.06;41.87
61506;BME280;47366;51.916;4.574;2023-06-14T00:22:22;101543.31;;;21.07;41.99
61506;BME280;47366;51.916;4.574;2023-06-14T00:24:49;101542.63;;;21.05;43.01
61506;BME280;47366;51.916;4.574;2023-06-14T00:27:15;101533.66;;;20.93;42.65
61506;BME280;47366;51.916;4.574;2023-06-14T00:29:40;101543.63;;;20.94;42.60
61506;BME280;47366;51.916;4.574;2023-06-14T00:32:06;101545.34;;;20.95;42.85
61506;BME280;47366;51.916;4.574;2023-06-14T00:34:32;101536.41;;;20.93;42.60
61506;BME280;47366;51.916;4.574;2023-06-14T00:36:57;101541.19;;;20.91;42.40
61506;BME280;47366;51.916;4.574;2023-06-14T00:39:22;101539.00;;;20.85;43.07
61506;BME280;47366;51.916;4.574;2023-06-14T00:41:48;101549.28;;;20.83;42.95
61506;BME280;47366;51.916;4.574;2023-06-14T00:44:16;101543.03;;;20.81;43.73
61506;BME280;47366;51.916;4.574;2023-06-14T00:46:42;101543.34;;;20.77;43.25
61506;BME280;47366;51.916;4.574;2023-06-14T00:49:08;101555.22;;;20.78;43.63
61506;BME280;47366;51.916;4.574;2023-06-14T00:51:34;101550.31;;;20.72;44.57
61506;BME280;47366;51.916;4.574;2023-06-14T00:53:59;101542.31;;;20.69;43.89
61506;BME280;47366;51.916;4.574;2023-06-14T00:56:26;101539.84;;;20.66;43.90
61506;BME280;47366;51.916;4.574;2023-06-14T00:58:53;101534.63;;;20.63;43.56
61506;BME280;47366;51.916;4.574;2023-06-14T01:01:18;101551.44;;;20.60;44.55
61506;BME280;47366;51.916;4.574;2023-06-14T01:03:43;101535.03;;;20.48;44.47
61506;BME280;47366;51.916;4.574;2023-06-14T01:12:01;101545.16;;;20.48;45.99
61506;BME280;47366;51.916;4.574;2023-06-14T01:14:28;101539.91;;;20.45;44.81
61506;BME280;47366;51.916;4.574;2023-06-14T01:16:57;101550.34;;;20.41;45.19
61506;BME280;47366;51.916;4.574;2023-06-14T01:19:24;101539.47;;;20.40;45.29
61506;BME280;47366;51.916;4.574;2023-06-14T01:21:50;101544.13;;;20.39;44.70
61506;BME280;47366;51.916;4.574;2023-06-14T01:24:16;101549.19;;;20.34;45.00
61506;BME280;47366;51.916;4.574;2023-06-14T01:26:45;101544.84;;;20.31;45.37
61506;BME280;47366;51.916;4.574;2023-06-14T01:29:10;101536.84;;;20.28;44.78
61506;BME280;47366;51.916;4.574;2023-06-14T01:31:37;101539.59;;;20.28;44.78
61506;BME280;47366;51.916;4.574;2023-06-14T01:34:07;101538.16;;;20.24;45.17
61506;BME280;47366;51.916;4.574;2023-06-14T01:36:32;101542.19;;;20.20;44.75
61506;BME280;47366;51.916;4.574;2023-06-14T01:38:59;101543.47;;;20.16;45.30
61506;BME280;47366;51.916;4.574;2023-06-14T01:41:25;101533.28;;;20.07;45.13
61506;BME280;47366;51.916;4.574;2023-06-14T01:43:52;101543.72;;;20.03;44.97
61506;BME280;47366;51.916;4.574;2023-06-14T01:46:19;101536.34;;;20.04;45.39
61506;BME280;47366;51.916;4.574;2023-06-14T01:48:44;101540.81;;;19.95;44.96
61506;BME280;47366;51.916;4.574;2023-06-14T01:51:10;101544.84;;;19.91;44.79
61506;BME280;47366;51.916;4.574;2023-06-14T01:53:35;101541.47;;;19.87;45.11
61506;BME280;47366;51.916;4.574;2023-06-14T01:56:01;101530.44;;;19.78;45.50
61506;BME280;47366;51.916;4.574;2023-06-14T01:58:26;101534.94;;;19.79;45.05
61506;BME280;47366;51.916;4.574;2023-06-14T02:00:52;101536.97;;;19.77;45.21
61506;BME280;47366;51.916;4.574;2023-06-14T02:03:20;101529.50;;;19.67;45.47
61506;BME280;47366;51.916;4.574;2023-06-14T02:05:46;101541.09;;;19.71;45.29
61506;BME280;47366;51.916;4.574;2023-06-14T02:08:11;101546.59;;;19.71;45.74
61506;BME280;47366;51.916;4.574;2023-06-14T02:10:36;101544.59;;;19.73;45.60
61506;BME280;47366;51.916;4.574;2023-06-14T02:13:02;101544.88;;;19.70;45.84
61506;BME280;47366;51.916;4.574;2023-06-14T02:15:27;101543.25;;;19.67;46.12
61506;BME280;47366;51.916;4.574;2023-06-14T02:17:58;101538.66;;;19.68;45.65
61506;BME280;47366;51.916;4.574;2023-06-14T02:20:24;101536.56;;;19.60;45.81
61506;BME280;47366;51.916;4.574;2023-06-14T02:22:49;101534.94;;;19.58;46.08
61506;BME280;47366;51.916;4.574;2023-06-14T02:25:14;101542.44;;;19.56;46.27
61506;BME280;47366;51.916;4.574;2023-06-14T02:27:40;101545.47;;;19.52;45.77
61506;BME280;47366;51.916;4.574;2023-06-14T02:30:06;101545.72;;;19.49;46.29
61506;BME280;47366;51.916;4.574;2023-06-14T02:32:31;101540.63;;;19.45;45.98
61506;BME280;47366;51.916;4.574;2023-06-14T02:34:57;101549.50;;;19.48;46.46
61506;BME280;47366;51.916;4.574;2023-06-14T02:37:22;101552.06;;;19.40;46.50
61506;BME280;47366;51.916;4.574;2023-06-14T02:39:48;101557.56;;;19.40;46.10
61506;BME280;47366;51.916;4.574;2023-06-14T02:42:13;101545.22;;;19.35;46.42
61506;BME280;47366;51.916;4.574;2023-06-14T02:44:38;101545.09;;;19.36;45.97
61506;BME280;47366;51.916;4.574;2023-06-14T02:47:04;101557.22;;;19.34;45.93
61506;BME280;47366;51.916;4.574;2023-06-14T02:49:30;101547.63;;;19.28;46.26
61506;BME280;47366;51.916;4.574;2023-06-14T02:51:55;101548.34;;;19.30;46.57
61506;BME280;47366;51.916;4.574;2023-06-14T02:54:21;101556.00;;;19.26;46.14
61506;BME280;47366;51.916;4.574;2023-06-14T02:56:46;101538.44;;;19.18;46.05
61506;BME280;47366;51.916;4.574;2023-06-14T02:59:11;101563.41;;;19.26;45.82
61506;BME280;47366;51.916;4.574;2023-06-14T03:01:38;101561.91;;;19.22;46.09
61506;BME280;47366;51.916;4.574;2023-06-14T03:04:04;101555.31;;;19.13;46.09
61506;BME280;47366;51.916;4.574;2023-06-14T03:06:30;101566.19;;;19.15;46.35
61506;BME280;47366;51.916;4.574;2023-06-14T03:08:56;101568.06;;;19.14;45.88
61506;BME280;47366;51.916;4.574;2023-06-14T03:11:28;101566.19;;;19.15;46.20
61506;BME280;47366;51.916;4.574;2023-06-14T03:13:53;101561.22;;;19.08;46.07
61506;BME280;47366;51.916;4.574;2023-06-14T03:16:19;101559.88;;;19.03;46.15
61506;BME280;47366;51.916;4.574;2023-06-14T03:18:53;101571.22;;;19.09;46.28
61506;BME280;47366;51.916;4.574;2023-06-14T03:21:19;101572.34;;;19.07;46.01
61506;BME280;47366;51.916;4.574;2023-06-14T03:23:45;101570.38;;;18.98;46.46
61506;BME280;47366;51.916;4.574;2023-06-14T03:26:11;101579.22;;;19.01;46.34
61506;BME280;47366;51.916;4.574;2023-06-14T03:28:40;101577.50;;;19.00;46.34
61506;BME280;47366;51.916;4.574;2023-06-14T03:31:06;101578.28;;;18.91;46.79
61506;BME280;47366;51.916;4.574;2023-06-14T03:33:32;101585.50;;;18.92;46.38
61506;BME280;47366;51.916;4.574;2023-06-14T03:35:57;101594.63;;;18.93;46.10
61506;BME280;47366;51.916;4.574;2023-06-14T03:38:22;101595.50;;;18.93;45.83
61506;BME280;47366;51.916;4.574;2023-06-14T03:40:48;101598.25;;;18.93;46.32
61506;BME280;47366;51.916;4.574;2023-06-14T03:43:13;101592.66;;;18.83;46.21
61506;BME280;47366;51.916;4.574;2023-06-14T03:45:38;101596.28;;;18.84;46.06
61506;BME280;47366;51.916;4.574;2023-06-14T03:48:04;101594.38;;;18.84;46.26
61506;BME280;47366;51.916;4.574;2023-06-14T03:50:32;101601.00;;;18.82;46.51
61506;BME280;47366;51.916;4.574;2023-06-14T03:52:57;101603.75;;;18.82;46.48
61506;BME280;47366;51.916;4.574;2023-06-14T03:55:23;101604.22;;;18.76;46.79
61506;BME280;47366;51.916;4.574;2023-06-14T03:57:50;101601.75;;;18.73;46.26
61506;BME280;47366;51.916;4.574;2023-06-14T04:00:16;101594.66;;;18.70;46.72
61506;BME280;47366;51.916;4.574;2023-06-14T04:02:41;101604.75;;;18.70;47.08
61506;BME280;47366;51.916;4.574;2023-06-14T04:05:07;101604.88;;;18.68;46.67
61506;BME280;47366;51.916;4.574;2023-06-14T04:07:34;101611.38;;;18.67;46.57
61506;BME280;47366;51.916;4.574;2023-06-14T04:10:06;101611.38;;;18.67;46.64
61506;BME280;47366;51.916;4.574;2023-06-14T04:12:32;101600.91;;;18.61;46.57
61506;BME280;47366;51.916;4.574;2023-06-14T04:14:57;101614.13;;;18.67;47.07
61506;BME280;47366;51.916;4.574;2023-06-14T04:17:22;101609.13;;;18.61;47.54
61506;BME280;47366;51.916;4.574;2023-06-14T04:19:48;101613.66;;;18.62;47.70
61506;BME280;47366;51.916;4.574;2023-06-14T04:22:13;101617.25;;;18.62;46.46
61506;BME280;47366;51.916;4.574;2023-06-14T04:24:38;101622.75;;;18.62;46.69
61506;BME280;47366;51.916;4.574;2023-06-14T04:27:04;101619.50;;;18.57;46.92
61506;BME280;47366;51.916;4.574;2023-06-14T04:29:29;101619.50;;;18.57;47.11
61506;BME280;47366;51.916;4.574;2023-06-14T04:31:55;101611.41;;;18.56;46.71
61506;BME280;47366;51.916;4.574;2023-06-14T04:34:25;101623.25;;;18.56;46.74
61506;BME280;47366;51.916;4.574;2023-06-14T04:36:55;101626.72;;;18.58;46.75
61506;BME280;47366;51.916;4.574;2023-06-14T04:39:22;101625.88;;;18.58;46.67
61506;BME280;47366;51.916;4.574;2023-06-14T04:41:48;101617.75;;;18.56;46.85
61506;BME280;47366;51.916;4.574;2023-06-14T04:44:18;101614.25;;;18.54;46.70
61506;BME280;47366;51.916;4.574;2023-06-14T04:46:45;101610.53;;;18.55;46.85
61506;BME280;47366;51.916;4.574;2023-06-14T04:49:16;101619.50;;;18.57;46.98
61506;BME280;47366;51.916;4.574;2023-06-14T04:51:43;101616.88;;;18.56;46.87
61506;BME280;47366;51.916;4.574;2023-06-14T04:54:09;101620.25;;;18.59;46.87
61506;BME280;47366;51.916;4.574;2023-06-14T04:56:39;101625.00;;;18.57;46.82
61506;BME280;47366;51.916;4.574;2023-06-14T04:59:04;101614.53;;;18.51;47.02
61506;BME280;47366;51.916;4.574;2023-06-14T05:01:30;101614.53;;;18.51;46.94
61506;BME280;47366;51.916;4.574;2023-06-14T05:03:57;101620.50;;;18.56;46.89
61506;BME280;47366;51.916;4.574;2023-06-14T05:06:22;101630.72;;;18.65;46.85
61506;BME280;47366;51.916;4.574;2023-06-14T05:08:48;101628.72;;;18.67;47.01
61506;BME280;47366;51.916;4.574;2023-06-14T05:11:13;101628.44;;;18.71;46.54
61506;BME280;47366;51.916;4.574;2023-06-14T05:13:38;101629.34;;;18.71;46.59
61506;BME280;47366;51.916;4.574;2023-06-14T05:16:06;101634.97;;;18.81;46.75
61506;BME280;47366;51.916;4.574;2023-06-14T05:18:31;101632.56;;;18.87;46.58
61506;BME280;47366;51.916;4.574;2023-06-14T05:20:59;101643.16;;;18.92;46.47
61506;BME280;47366;51.916;4.574;2023-06-14T05:23:25;101646.91;;;18.91;46.31
61506;BME280;47366;51.916;4.574;2023-06-14T05:25:50;101642.03;;;18.95;46.90
61506;BME280;47366;51.916;4.574;2023-06-14T05:28:15;101648.41;;;18.95;46.31
61506;BME280;47366;51.916;4.574;2023-06-14T05:30:41;101650.88;;;18.98;46.43
61506;BME280;47366;51.916;4.574;2023-06-14T05:33:07;101641.03;;;18.96;46.78
61506;BME280;47366;51.916;4.574;2023-06-14T05:35:32;101647.50;;;18.95;46.88
61506;BME280;47366;51.916;4.574;2023-06-14T05:37:57;101655.13;;;19.02;46.12
61506;BME280;47366;51.916;4.574;2023-06-14T05:40:23;101647.75;;;19.03;46.04
61506;BME280;47366;51.916;4.574;2023-06-14T05:42:48;101647.22;;;19.09;46.78
61506;BME280;47366;51.916;4.574;2023-06-14T05:45:13;101650.94;;;19.19;46.16
61506;BME280;47366;51.916;4.574;2023-06-14T05:47:41;101649.53;;;19.25;46.04
61506;BME280;47366;51.916;4.574;2023-06-14T05:50:06;101663.06;;;19.38;46.04
61506;BME280;47366;51.916;4.574;2023-06-14T05:52:33;101651.84;;;19.41;45.59
61506;BME280;47366;51.916;4.574;2023-06-14T05:54:59;101653.66;;;19.51;45.14
61506;BME280;47366;51.916;4.574;2023-06-14T05:57:25;101659.78;;;19.55;45.25
61506;BME280;47366;51.916;4.574;2023-06-14T05:59:50;101660.69;;;19.65;45.81
61506;BME280;47366;51.916;4.574;2023-06-14T06:02:16;101650.38;;;19.58;45.84
61506;BME280;47366;51.916;4.574;2023-06-14T06:04:41;101650.09;;;19.72;45.36
61506;BME280;47366;51.916;4.574;2023-06-14T06:07:07;101651.56;;;19.76;45.47
61506;BME280;47366;51.916;4.574;2023-06-14T06:09:32;101656.91;;;19.78;45.25
61506;BME280;47366;51.916;4.574;2023-06-14T06:11:58;101663.16;;;19.80;45.31
61506;BME280;47366;51.916;4.574;2023-06-14T06:14:23;101664.06;;;19.90;45.45
61506;BME280;47366;51.916;4.574;2023-06-14T06:16:49;101660.66;;;19.98;44.99
61506;BME280;47366;51.916;4.574;2023-06-14T06:19:14;101648.53;;;20.00;45.50
61506;BME280;47366;51.916;4.574;2023-06-14T06:21:40;101660.84;;;20.06;45.64
61506;BME280;47366;51.916;4.574;2023-06-14T06:24:06;101658.56;;;20.11;45.39
61506;BME280;47366;51.916;4.574;2023-06-14T06:26:32;101675.44;;;20.27;44.66
61506;BME280;47366;51.916;4.574;2023-06-14T06:28:58;101676.22;;;20.39;44.88
61506;BME280;47366;51.916;4.574;2023-06-14T06:31:24;101675.25;;;20.50;45.08
61506;BME280;47366;51.916;4.574;2023-06-14T06:33:49;101674.72;;;20.56;44.45
61506;BME280;47366;51.916;4.574;2023-06-14T06:36:15;101668.38;;;20.65;44.51
61506;BME280;47366;51.916;4.574;2023-06-14T06:38:41;101665.38;;;20.78;44.00
61506;BME280;47366;51.916;4.574;2023-06-14T06:41:06;101687.09;;;20.71;44.00
61506;BME280;47366;51.916;4.574;2023-06-14T06:43:32;101675.38;;;20.79;43.73
61506;BME280;47366;51.916;4.574;2023-06-14T06:45:57;101678.31;;;20.97;43.62
61506;BME280;47366;51.916;4.574;2023-06-14T06:48:22;101682.97;;;21.16;43.59
61506;BME280;47366;51.916;4.574;2023-06-14T06:50:48;101696.03;;;21.24;43.38
61506;BME280;47366;51.916;4.574;2023-06-14T06:53:16;101695.91;;;21.35;43.38
61506;BME280;47366;51.916;4.574;2023-06-14T06:55:43;101699.13;;;21.40;43.14
61506;BME280;47366;51.916;4.574;2023-06-14T06:58:09;101695.69;;;21.48;42.67
61506;BME280;47366;51.916;4.574;2023-06-14T07:00:34;101697.84;;;21.44;42.65
61506;BME280;47366;51.916;4.574;2023-06-14T07:02:59;101697.25;;;21.60;42.53
61506;BME280;47366;51.916;4.574;2023-06-14T07:05:25;101700.31;;;21.67;42.46
61506;BME280;47366;51.916;4.574;2023-06-14T07:07:50;101696.22;;;21.80;41.87
61506;BME280;47366;51.916;4.574;2023-06-14T07:10:15;101707.25;;;21.80;41.67
61506;BME280;47366;51.916;4.574;2023-06-14T07:12:41;101705.53;;;21.79;42.33
61506;BME280;47366;51.916;4.574;2023-06-14T07:15:07;101694.59;;;21.97;41.85
61506;BME280;47366;51.916;4.574;2023-06-14T07:17:33;101709.50;;;22.14;41.74
61506;BME280;47366;51.916;4.574;2023-06-14T07:19:59;101710.53;;;22.23;41.87
61506;BME280;47366;51.916;4.574;2023-06-14T07:22:26;101706.72;;;22.43;41.35
61506;BME280;47366;51.916;4.574;2023-06-14T07:24:51;101715.22;;;22.60;41.01
61506;BME280;47366;51.916;4.574;2023-06-14T07:27:17;101707.75;;;22.70;41.13
61506;BME280;47366;51.916;4.574;2023-06-14T07:29:42;101706.94;;;22.87;41.09
61506;BME280;47366;51.916;4.574;2023-06-14T07:32:07;101708.75;;;23.06;40.80
61506;BME280;47366;51.916;4.574;2023-06-14T07:34:33;101705.66;;;23.09;40.65
61506;BME280;47366;51.916;4.574;2023-06-14T07:36:58;101710.25;;;23.19;40.38
61506;BME280;47366;51.916;4.574;2023-06-14T07:39:23;101710.50;;;23.25;40.11
61506;BME280;47366;51.916;4.574;2023-06-14T07:41:48;101720.47;;;23.36;39.53
61506;BME280;47366;51.916;4.574;2023-06-14T07:44:14;101722.94;;;23.39;39.59
61506;BME280;47366;51.916;4.574;2023-06-14T07:46:39;101724.19;;;23.45;39.12
61506;BME280;47366;51.916;4.574;2023-06-14T07:49:05;101732.97;;;23.58;39.74
61506;BME280;47366;51.916;4.574;2023-06-14T07:51:31;101729.88;;;23.61;38.85
61506;BME280;47366;51.916;4.574;2023-06-14T07:53:58;101725.38;;;23.60;39.59
61506;BME280;47366;51.916;4.574;2023-06-14T07:56:26;101722.53;;;23.52;39.00
61506;BME280;47366;51.916;4.574;2023-06-14T07:58:51;101727.97;;;23.62;39.12
61506;BME280;47366;51.916;4.574;2023-06-14T08:01:16;101729.34;;;23.76;38.68
61506;BME280;47366;51.916;4.574;2023-06-14T08:03:42;101731.53;;;23.90;38.83
61506;BME280;47366;51.916;4.574;2023-06-14T08:06:07;101728.88;;;23.98;39.13
61506;BME280;47366;51.916;4.574;2023-06-14T08:08:33;101728.81;;;24.16;38.65
61506;BME280;47366;51.916;4.574;2023-06-14T08:10:58;101728.78;;;24.34;38.83
61506;BME280;47366;51.916;4.574;2023-06-14T08:13:23;101725.50;;;24.38;37.89
61506;BME280;47366;51.916;4.574;2023-06-14T08:15:49;101728.19;;;24.48;38.09
61506;BME280;47366;51.916;4.574;2023-06-14T08:18:14;101727.59;;;24.63;37.30
61506;BME280;47366;51.916;4.574;2023-06-14T08:20:40;101728.28;;;24.65;37.14
61506;BME280;47366;51.916;4.574;2023-06-14T08:23:05;101730.03;;;24.74;37.37
61506;BME280;47366;51.916;4.574;2023-06-14T08:25:31;101741.56;;;24.95;37.38
61506;BME280;47366;51.916;4.574;2023-06-14T08:27:56;101733.53;;;24.76;37.25
61506;BME280;47366;51.916;4.574;2023-06-14T08:30:22;101742.63;;;24.94;36.38
61506;BME280;47366;51.916;4.574;2023-06-14T08:32:47;101750.06;;;24.94;35.90
61506;BME280;47366;51.916;4.574;2023-06-14T08:35:12;101737.22;;;24.93;36.44
61506;BME280;47366;51.916;4.574;2023-06-14T08:37:41;101737.97;;;25.03;36.42
61506;BME280;47366;51.916;4.574;2023-06-14T08:40:18;101732.59;;;25.01;35.76
61506;BME280;47366;51.916;4.574;2023-06-14T08:42:44;101757.13;;;25.23;36.00
61506;BME280;47366;51.916;4.574;2023-06-14T08:45:11;101736.88;;;25.22;35.05
61506;BME280;47366;51.916;4.574;2023-06-14T08:47:37;101736.00;;;25.30;34.99
61506;BME280;47366;51.916;4.574;2023-06-14T08:50:03;101745.59;;;25.43;34.99
61506;BME280;47366;51.916;4.574;2023-06-14T08:52:31;101738.47;;;25.41;35.13
61506;BME280;47366;51.916;4.574;2023-06-14T08:54:59;101733.63;;;25.59;35.02
61506;BME280;47366;51.916;4.574;2023-06-14T08:57:26;101741.44;;;25.64;34.37
61506;BME280;47366;51.916;4.574;2023-06-14T08:59:56;101744.94;;;25.82;34.58
61506;BME280;47366;51.916;4.574;2023-06-14T09:02:22;101744.78;;;26.00;34.54
61506;BME280;47366;51.916;4.574;2023-06-14T09:04:47;101743.91;;;26.00;33.98
61506;BME280;47366;51.916;4.574;2023-06-14T09:07:15;101738.19;;;26.01;34.30
61506;BME280;47366;51.916;4.574;2023-06-14T09:09:41;101738.69;;;26.05;34.31
61506;BME280;47366;51.916;4.574;2023-06-14T09:12:08;101735.91;;;26.21;33.64
61506;BME280;47366;51.916;4.574;2023-06-14T09:14:36;101745.97;;;26.31;33.35
61506;BME280;47366;51.916;4.574;2023-06-14T09:17:04;101747.88;;;26.30;33.69
61506;BME280;47366;51.916;4.574;2023-06-14T09:19:29;101741.81;;;26.35;32.41
61506;BME280;47366;51.916;4.574;2023-06-14T09:21:54;101735.56;;;26.24;32.75
61506;BME280;47366;51.916;4.574;2023-06-14T09:24:20;101741.47;;;26.30;33.27
61506;BME280;47366;51.916;4.574;2023-06-14T09:26:51;101749.25;;;26.42;32.82
61506;BME280;47366;51.916;4.574;2023-06-14T09:29:17;101744.03;;;26.47;31.99
61506;BME280;47366;51.916;4.574;2023-06-14T09:31:43;101751.50;;;26.55;32.12
61506;BME280;47366;51.916;4.574;2023-06-14T09:34:08;101751.69;;;26.54;32.76
61506;BME280;47366;51.916;4.574;2023-06-14T09:36:34;101753.91;;;26.66;31.93
61506;BME280;47366;51.916;4.574;2023-06-14T09:39:01;101757.91;;;26.72;31.99
61506;BME280;47366;51.916;4.574;2023-06-14T09:41:38;101766.56;;;26.77;30.37
61506;BME280;47366;51.916;4.574;2023-06-14T09:44:08;101754.19;;;26.88;31.85
61506;BME280;47366;51.916;4.574;2023-06-14T09:46:34;101758.97;;;27.02;31.39
61506;BME280;47366;51.916;4.574;2023-06-14T09:49:01;101748.53;;;27.13;30.91
61506;BME280;47366;51.916;4.574;2023-06-14T09:51:27;101743.63;;;27.15;30.47
61506;BME280;47366;51.916;4.574;2023-06-14T09:53:59;101758.69;;;27.37;30.82
61506;BME280;47366;51.916;4.574;2023-06-14T09:56:31;101756.41;;;27.63;30.94
61506;BME280;47366;51.916;4.574;2023-06-14T09:58:59;101753.09;;;27.68;30.80
61506;BME280;47366;51.916;4.574;2023-06-14T10:01:26;101759.13;;;27.71;30.30
61506;BME280;47366;51.916;4.574;2023-06-14T10:04:00;101744.25;;;27.87;30.32
61506;BME280;47366;51.916;4.574;2023-06-14T10:06:28;101753.28;;;27.89;30.32
61506;BME280;47366;51.916;4.574;2023-06-14T10:08:58;101753.56;;;28.17;30.13
61506;BME280;47366;51.916;4.574;2023-06-14T10:11:28;101752.91;;;28.15;29.89
61506;BME280;47366;51.916;4.574;2023-06-14T10:13:57;101755.31;;;28.33;28.84
61506;BME280;47366;51.916;4.574;2023-06-14T10:16:30;101752.13;;;28.22;28.82
61506;BME280;47366;51.916;4.574;2023-06-14T10:21:57;101757.84;;;28.05;27.38
61506;BME280;47366;51.916;4.574;2023-06-14T10:24:29;101744.81;;;27.83;27.90
61506;BME280;47366;51.916;4.574;2023-06-14T10:26:58;101746.19;;;27.87;28.13
61506;BME280;47366;51.916;4.574;2023-06-14T10:29:24;101757.75;;;27.99;27.16
61506;BME280;47366;51.916;4.574;2023-06-14T10:31:51;101740.28;;;28.05;26.82
61506;BME280;47366;51.916;4.574;2023-06-14T10:34:28;101749.56;;;27.97;26.10
61506;BME280;47366;51.916;4.574;2023-06-14T10:37:11;101748.25;;;28.08;26.45
61506;BME280;47366;51.916;4.574;2023-06-14T10:39:44;101748.63;;;28.05;26.70
61506;BME280;47366;51.916;4.574;2023-06-14T10:42:14;101749.16;;;28.23;27.63
61506;BME280;47366;51.916;4.574;2023-06-14T10:44:43;101750.59;;;28.34;27.25
61506;BME280;47366;51.916;4.574;2023-06-14T10:47:27;101744.56;;;28.30;25.80
61506;BME280;47366;51.916;4.574;2023-06-14T10:49:55;101738.00;;;28.46;26.75
61506;BME280;47366;51.916;4.574;2023-06-14T10:52:24;101756.66;;;28.75;27.55
61506;BME280;47366;51.916;4.574;2023-06-14T10:57:49;101750.88;;;28.62;26.21
61506;BME280;47366;51.916;4.574;2023-06-14T11:00:22;101749.63;;;28.79;26.69
61506;BME280;47366;51.916;4.574;2023-06-14T11:10:59;101749.13;;;28.91;25.24
61506;BME280;47366;51.916;4.574;2023-06-14T11:13:26;101754.97;;;28.96;26.62
61506;BME280;47366;51.916;4.574;2023-06-14T11:15:51;101754.44;;;29.15;25.55
61506;BME280;47366;51.916;4.574;2023-06-14T11:18:22;101741.34;;;29.01;26.03
61506;BME280;47366;51.916;4.574;2023-06-14T11:20:53;101746.53;;;29.19;26.11
61506;BME280;47366;51.916;4.574;2023-06-14T11:23:18;101734.00;;;29.30;26.08
61506;BME280;47366;51.916;4.574;2023-06-14T11:25:49;101735.72;;;29.31;25.81
61506;BME280;47366;51.916;4.574;2023-06-14T11:28:14;101743.09;;;29.38;26.31
61506;BME280;47366;51.916;4.574;2023-06-14T11:30:39;101734.22;;;29.50;25.33
61506;BME280;47366;51.916;4.574;2023-06-14T11:33:09;101737.09;;;29.56;26.06
61506;BME280;47366;51.916;4.574;2023-06-14T11:35:35;101730.41;;;29.57;25.47
61506;BME280;47366;51.916;4.574;2023-06-14T11:38:01;101727.50;;;29.44;25.67
61506;BME280;47366;51.916;4.574;2023-06-14T11:40:27;101714.50;;;29.36;25.71
61506;BME280;47366;51.916;4.574;2023-06-14T11:42:59;101726.34;;;29.38;25.29
61506;BME280;47366;51.916;4.574;2023-06-14T11:45:25;101738.09;;;29.34;25.89
61506;BME280;47366;51.916;4.574;2023-06-14T11:47:51;101727.78;;;29.49;25.59
61506;BME280;47366;51.916;4.574;2023-06-14T11:50:16;101725.16;;;29.48;25.47
61506;BME280;47366;51.916;4.574;2023-06-14T11:52:41;101720.31;;;29.35;25.26
61506;BME280;47366;51.916;4.574;2023-06-14T11:55:07;101733.50;;;29.26;24.71
61506;BME280;47366;51.916;4.574;2023-06-14T11:57:36;101730.44;;;29.21;25.85
61506;BME280;47366;51.916;4.574;2023-06-14T12:00:04;101728.59;;;29.28;25.77
61506;BME280;47366;51.916;4.574;2023-06-14T12:02:37;101728.41;;;29.30;25.20
61506;BME280;47366;51.916;4.574;2023-06-14T12:05:07;101730.03;;;29.24;25.21
61506;BME280;47366;51.916;4.574;2023-06-14T12:07:38;101730.00;;;29.39;25.47
61506;BME280;47366;51.916;4.574;2023-06-14T12:10:07;101719.31;;;29.64;24.66
61506;BME280;47366;51.916;4.574;2023-06-14T12:12:38;101719.88;;;29.74;24.66
61506;BME280;47366;51.916;4.574;2023-06-14T12:15:05;101728.53;;;29.79;25.10
61506;BME280;47366;51.916;4.574;2023-06-14T12:17:35;101722.34;;;29.84;24.83
61506;BME280;47366;51.916;4.574;2023-06-14T12:20:05;101705.72;;;29.76;24.19
61506;BME280;47366;51.916;4.574;2023-06-14T12:22:58;101718.09;;;29.88;24.71
61506;BME280;47366;51.916;4.574;2023-06-14T12:25:28;101720.03;;;29.88;24.94
61506;BME280;47366;51.916;4.574;2023-06-14T12:27:56;101721.28;;;29.85;24.92
61506;BME280;47366;51.916;4.574;2023-06-14T12:30:21;101720.47;;;29.91;24.35
61506;BME280;47366;51.916;4.574;2023-06-14T12:32:47;101729.31;;;29.95;23.59
61506;BME280;47366;51.916;4.574;2023-06-14T12:35:12;101729.00;;;29.83;24.60
61506;BME280;47366;51.916;4.574;2023-06-14T12:37:37;101728.34;;;29.81;24.22
61506;BME280;47366;51.916;4.574;2023-06-14T12:40:03;101723.34;;;29.76;24.68
61506;BME280;47366;51.916;4.574;2023-06-14T12:42:31;101723.34;;;29.76;24.64
61506;BME280;47366;51.916;4.574;2023-06-14T12:44:56;101729.41;;;29.80;24.10
61506;BME280;47366;51.916;4.574;2023-06-14T12:47:21;101709.41;;;29.61;23.97
61506;BME280;47366;51.916;4.574;2023-06-14T12:49:47;101720.19;;;29.64;23.51
61506;BME280;47366;51.916;4.574;2023-06-14T12:52:12;101721.75;;;29.67;23.94
61506;BME280;47366;51.916;4.574;2023-06-14T12:54:37;101712.28;;;29.47;24.09
61506;BME280;47366;51.916;4.574;2023-06-14T12:57:05;101721.94;;;29.44;23.07
61506;BME280;47366;51.916;4.574;2023-06-14T12:59:30;101702.97;;;29.39;24.20
61506;BME280;47366;51.916;4.574;2023-06-14T13:02:11;101709.16;;;29.35;24.25
61506;BME280;47366;51.916;4.574;2023-06-14T13:04:37;101722.19;;;29.49;24.12
61506;BME280;47366;51.916;4.574;2023-06-14T13:07:02;101719.72;;;29.61;24.43